sensor_id;sensor_type;location;lat;lon;timestamp;pressure;altitude;pressure_sealevel;temperature;humidity
73981;BME280;62348;51.412;5.436;2024-02-16T00:00:39;100818.75;;;10.39;100.00
73981;BME280;62348;51.412;5.436;2024-02-16T00:03:04;100822.50;;;10.38;100.00
73981;BME280;62348;51.412;5.436;2024-02-16T00:05:30;100827.34;;;10.35;100.00
73981;BME280;62348;51.412;5.436;2024-02-16T00:07:55;100832.75;;;10.35;100.00
73981;BME280;62348;51.412;5.436;2024-02-16T00:10:22;100819.78;;;10.32;100.00
73981;BME280;62348;51.412;5.436;2024-02-16T00:12:47;100816.53;;;10.30;100.00
73981;BME280;62348;51.412;5.436;2024-02-16T00:15:13;100816.75;;;10.29;100.00
73981;BME280;62348;51.412;5.436;2024-02-16T00:17:38;100817.56;;;10.29;100.00
73981;BME280;62348;51.412;5.436;2024-02-16T00:20:04;100811.59;;;10.27;100.00
73981;BME280;62348;51.412;5.436;2024-02-16T00:22:32;100809.16;;;10.26;100.00
73981;BME280;62348;51.412;5.436;2024-02-16T00:24:58;100796.75;;;10.25;100.00
73981;BME280;62348;51.412;5.436;2024-02-16T00:27:23;100812.13;;;10.24;100.00
73981;BME280;62348;51.412;5.436;2024-02-16T00:29:49;100814.00;;;10.24;100.00
73981;BME280;62348;51.412;5.436;2024-02-16T00:32:14;100807.81;;;10.23;100.00
73981;BME280;62348;51.412;5.436;2024-02-16T00:34:43;100805.34;;;10.22;100.00
73981;BME280;62348;51.412;5.436;2024-02-16T00:37:08;100813.72;;;10.20;100.00
73981;BME280;62348;51.412;5.436;2024-02-16T00:39:36;100810.19;;;10.20;100.00
73981;BME280;62348;51.412;5.436;2024-02-16T00:42:02;100813.41;;;10.16;100.00
73981;BME280;62348;51.412;5.436;2024-02-16T00:44:28;100805.59;;;10.15;100.00
73981;BME280;62348;51.412;5.436;2024-02-16T00:46:53;100810.41;;;10.13;100.00
73981;BME280;62348;51.412;5.436;2024-02-16T00:49:18;100801.75;;;10.11;100.00
73981;BME280;62348;51.412;5.436;2024-02-16T00:51:44;100803.91;;;10.09;100.00
73981;BME280;62348;51.412;5.436;2024-02-16T00:54:09;100795.50;;;10.05;100.00
73981;BME280;62348;51.412;5.436;2024-02-16T00:56:35;100789.81;;;10.02;100.00
73981;BME280;62348;51.412;5.436;2024-02-16T00:59:00;100791.94;;;10.00;100.00
73981;BME280;62348;51.412;5.436;2024-02-16T01:01:26;100797.63;;;9.98;100.00
73981;BME280;62348;51.412;5.436;2024-02-16T01:03:54;100797.06;;;9.96;100.00
73981;BME280;62348;51.412;5.436;2024-02-16T01:06:20;100802.16;;;9.92;100.00
73981;BME280;62348;51.412;5.436;2024-02-16T01:08:46;100798.06;;;9.90;100.00
73981;BME280;62348;51.412;5.436;2024-02-16T01:11:14;100796.72;;;9.87;100.00
73981;BME280;62348;51.412;5.436;2024-02-16T01:13:40;100790.75;;;9.85;100.00
73981;BME280;62348;51.412;5.436;2024-02-16T01:16:05;100788.56;;;9.82;100.00
73981;BME280;62348;51.412;5.436;2024-02-16T01:18:31;100792.84;;;9.78;100.00
73981;BME280;62348;51.412;5.436;2024-02-16T01:20:58;100798.50;;;9.76;100.00
73981;BME280;62348;51.412;5.436;2024-02-16T01:23:24;100794.69;;;9.72;100.00
73981;BME280;62348;51.412;5.436;2024-02-16T01:25:49;100789.53;;;9.71;100.00
73981;BME280;62348;51.412;5.436;2024-02-16T01:28:14;100784.66;;;9.68;100.00
73981;BME280;62348;51.412;5.436;2024-02-16T01:30:40;100784.91;;;9.66;100.00
73981;BME280;62348;51.412;5.436;2024-02-16T01:33:06;100784.34;;;9.64;100.00
73981;BME280;62348;51.412;5.436;2024-02-16T01:35:34;100777.84;;;9.60;100.00
73981;BME280;62348;51.412;5.436;2024-02-16T01:38:00;100773.50;;;9.59;100.00
73981;BME280;62348;51.412;5.436;2024-02-16T01:40:26;100772.13;;;9.56;100.00
73981;BME280;62348;51.412;5.436;2024-02-16T01:42:52;100763.47;;;9.54;100.00
73981;BME280;62348;51.412;5.436;2024-02-16T01:45:21;100768.31;;;9.52;100.00
73981;BME280;62348;51.412;5.436;2024-02-16T01:47:49;100767.75;;;9.50;100.00
73981;BME280;62348;51.412;5.436;2024-02-16T01:50:16;100771.53;;;9.49;100.00
73981;BME280;62348;51.412;5.436;2024-02-16T01:52:43;100773.41;;;9.49;100.00
73981;BME280;62348;51.412;5.436;2024-02-16T01:55:09;100764.75;;;9.47;100.00
73981;BME280;62348;51.412;5.436;2024-02-16T01:57:47;100771.22;;;9.46;100.00
73981;BME280;62348;51.412;5.436;2024-02-16T02:00:13;100767.97;;;9.44;100.00
73981;BME280;62348;51.412;5.436;2024-02-16T02:02:40;100769.84;;;9.43;100.00
73981;BME280;62348;51.412;5.436;2024-02-16T02:05:06;100762.81;;;9.42;100.00
73981;BME280;62348;51.412;5.436;2024-02-16T02:07:32;100772.25;;;9.40;100.00
73981;BME280;62348;51.412;5.436;2024-02-16T02:09:58;100764.41;;;9.38;100.00
73981;BME280;62348;51.412;5.436;2024-02-16T02:12:24;100769.00;;;9.37;100.00
73981;BME280;62348;51.412;5.436;2024-02-16T02:14:49;100765.44;;;9.37;100.00
73981;BME280;62348;51.412;5.436;2024-02-16T02:17:15;100764.66;;;9.36;100.00
73981;BME280;62348;51.412;5.436;2024-02-16T02:19:41;100760.34;;;9.35;100.00
73981;BME280;62348;51.412;5.436;2024-02-16T02:22:16;100753.84;;;9.36;100.00
73981;BME280;62348;51.412;5.436;2024-02-16T02:24:46;100759.25;;;9.36;100.00
73981;BME280;62348;51.412;5.436;2024-02-16T02:27:12;100755.50;;;9.37;100.00
73981;BME280;62348;51.412;5.436;2024-02-16T02:29:39;100748.22;;;9.38;100.00
73981;BME280;62348;51.412;5.436;2024-02-16T02:32:05;100748.75;;;9.40;100.00
73981;BME280;62348;51.412;5.436;2024-02-16T02:34:30;100753.91;;;9.42;100.00
73981;BME280;62348;51.412;5.436;2024-02-16T02:36:56;100750.13;;;9.43;100.00
73981;BME280;62348;51.412;5.436;2024-02-16T02:39:21;100750.72;;;9.45;100.00
73981;BME280;62348;51.412;5.436;2024-02-16T02:41:46;100740.72;;;9.45;100.00
73981;BME280;62348;51.412;5.436;2024-02-16T02:44:12;100736.94;;;9.46;100.00
73981;BME280;62348;51.412;5.436;2024-02-16T02:46:38;100741.53;;;9.46;100.00
73981;BME280;62348;51.412;5.436;2024-02-16T02:49:03;100736.69;;;9.48;100.00
73981;BME280;62348;51.412;5.436;2024-02-16T02:51:29;100734.00;;;9.48;100.00
73981;BME280;62348;51.412;5.436;2024-02-16T02:53:54;100738.59;;;9.47;100.00
73981;BME280;62348;51.412;5.436;2024-02-16T02:56:20;100742.09;;;9.48;100.00
73981;BME280;62348;51.412;5.436;2024-02-16T02:58:45;100731.53;;;9.46;100.00
73981;BME280;62348;51.412;5.436;2024-02-16T03:01:12;100733.44;;;9.46;100.00
73981;BME280;62348;51.412;5.436;2024-02-16T03:03:38;100730.19;;;9.44;100.00
73981;BME280;62348;51.412;5.436;2024-02-16T03:06:04;100725.59;;;9.44;100.00
73981;BME280;62348;51.412;5.436;2024-02-16T03:08:29;100716.69;;;9.44;100.00
73981;BME280;62348;51.412;5.436;2024-02-16T03:10:55;100712.09;;;9.44;100.00
73981;BME280;62348;51.412;5.436;2024-02-16T03:13:20;100718.31;;;9.45;100.00
73981;BME280;62348;51.412;5.436;2024-02-16T03:15:46;100722.88;;;9.44;100.00
73981;BME280;62348;51.412;5.436;2024-02-16T03:18:11;100722.09;;;9.44;100.00
73981;BME280;62348;51.412;5.436;2024-02-16T03:20:36;100727.22;;;9.45;100.00
73981;BME280;62348;51.412;5.436;2024-02-16T03:23:02;100723.72;;;9.45;100.00
73981;BME280;62348;51.412;5.436;2024-02-16T03:25:28;100715.63;;;9.45;100.00
73981;BME280;62348;51.412;5.436;2024-02-16T03:27:54;100716.69;;;9.44;100.00
73981;BME280;62348;51.412;5.436;2024-02-16T03:30:19;100713.72;;;9.45;100.00
73981;BME280;62348;51.412;5.436;2024-02-16T03:32:51;100715.34;;;9.46;100.00
73981;BME280;62348;51.412;5.436;2024-02-16T03:35:18;100717.78;;;9.48;100.00
73981;BME280;62348;51.412;5.436;2024-02-16T03:37:44;100721.31;;;9.48;100.00
73981;BME280;62348;51.412;5.436;2024-02-16T03:40:09;100725.91;;;9.48;100.00
73981;BME280;62348;51.412;5.436;2024-02-16T03:42:36;100723.75;;;9.50;100.00
73981;BME280;62348;51.412;5.436;2024-02-16T03:45:02;100722.94;;;9.49;100.00
73981;BME280;62348;51.412;5.436;2024-02-16T03:47:28;100724.56;;;9.50;100.00
73981;BME280;62348;51.412;5.436;2024-02-16T03:49:53;100726.19;;;9.51;100.00
73981;BME280;62348;51.412;5.436;2024-02-16T03:52:18;100727.84;;;9.52;100.00
73981;BME280;62348;51.412;5.436;2024-02-16T03:54:44;100722.44;;;9.52;100.00
73981;BME280;62348;51.412;5.436;2024-02-16T03:57:13;100716.75;;;9.54;100.00
73981;BME280;62348;51.412;5.436;2024-02-16T03:59:38;100721.09;;;9.55;100.00
73981;BME280;62348;51.412;5.436;2024-02-16T04:02:04;100716.50;;;9.55;100.00
73981;BME280;62348;51.412;5.436;2024-02-16T04:04:30;100722.72;;;9.56;100.00
73981;BME280;62348;51.412;5.436;2024-02-16T04:06:55;100719.75;;;9.57;100.00
73981;BME280;62348;51.412;5.436;2024-02-16T04:09:20;100722.47;;;9.57;100.00
73981;BME280;62348;51.412;5.436;2024-02-16T04:11:46;100722.72;;;9.56;100.00
73981;BME280;62348;51.412;5.436;2024-02-16T04:14:12;100723.56;;;9.56;100.00
73981;BME280;62348;51.412;5.436;2024-02-16T04:16:37;100727.88;;;9.57;100.00
73981;BME280;62348;51.412;5.436;2024-02-16T04:19:02;100726.00;;;9.58;100.00
73981;BME280;62348;51.412;5.436;2024-02-16T04:21:28;100725.72;;;9.60;100.00
73981;BME280;62348;51.412;5.436;2024-02-16T04:23:53;100729.25;;;9.60;100.00
73981;BME280;62348;51.412;5.436;2024-02-16T04:26:19;100730.88;;;9.61;100.00
73981;BME280;62348;51.412;5.436;2024-02-16T04:28:44;100730.63;;;9.63;100.00
73981;BME280;62348;51.412;5.436;2024-02-16T04:31:10;100734.38;;;9.62;100.00
73981;BME280;62348;51.412;5.436;2024-02-16T04:33:35;100732.50;;;9.62;100.00
73981;BME280;62348;51.412;5.436;2024-02-16T04:36:00;100730.63;;;9.63;100.00
73981;BME280;62348;51.412;5.436;2024-02-16T04:38:26;100734.13;;;9.63;100.00
73981;BME280;62348;51.412;5.436;2024-02-16T04:40:51;100735.75;;;9.64;100.00
73981;BME280;62348;51.412;5.436;2024-02-16T04:43:17;100738.47;;;9.64;100.00
73981;BME280;62348;51.412;5.436;2024-02-16T04:45:42;100737.13;;;9.67;100.00
73981;BME280;62348;51.412;5.436;2024-02-16T04:48:08;100740.38;;;9.69;100.00
73981;BME280;62348;51.412;5.436;2024-02-16T04:50:34;100744.47;;;9.71;100.00
73981;BME280;62348;51.412;5.436;2024-02-16T04:53:00;100736.38;;;9.71;100.00
73981;BME280;62348;51.412;5.436;2024-02-16T04:55:29;100732.63;;;9.77;100.00
73981;BME280;62348;51.412;5.436;2024-02-16T04:57:56;100743.19;;;9.79;100.00
73981;BME280;62348;51.412;5.436;2024-02-16T05:00:22;100740.47;;;9.79;100.00
73981;BME280;62348;51.412;5.436;2024-02-16T05:02:47;100744.53;;;9.82;100.00
73981;BME280;62348;51.412;5.436;2024-02-16T05:05:13;100740.50;;;9.84;100.00
73981;BME280;62348;51.412;5.436;2024-02-16T05:07:38;100732.16;;;9.86;100.00
73981;BME280;62348;51.412;5.436;2024-02-16T05:10:08;100738.09;;;9.88;100.00
73981;BME280;62348;51.412;5.436;2024-02-16T05:12:33;100742.44;;;9.89;100.00
73981;BME280;62348;51.412;5.436;2024-02-16T05:14:59;100740.84;;;9.93;100.00
73981;BME280;62348;51.412;5.436;2024-02-16T05:17:25;100733.84;;;9.97;100.00
73981;BME280;62348;51.412;5.436;2024-02-16T05:19:50;100742.25;;;10.01;100.00
73981;BME280;62348;51.412;5.436;2024-02-16T05:22:15;100739.84;;;10.04;100.00
73981;BME280;62348;51.412;5.436;2024-02-16T05:24:44;100740.69;;;10.10;100.00
73981;BME280;62348;51.412;5.436;2024-02-16T05:27:09;100739.34;;;10.12;100.00
73981;BME280;62348;51.412;5.436;2024-02-16T05:29:36;100737.75;;;10.16;100.00
73981;BME280;62348;51.412;5.436;2024-02-16T05:32:01;100735.09;;;10.22;100.00
73981;BME280;62348;51.412;5.436;2024-02-16T05:34:26;100730.78;;;10.26;100.00
73981;BME280;62348;51.412;5.436;2024-02-16T05:36:57;100734.59;;;10.30;100.00
73981;BME280;62348;51.412;5.436;2024-02-16T05:39:22;100734.66;;;10.35;100.00
73981;BME280;62348;51.412;5.436;2024-02-16T05:41:56;100733.59;;;10.41;100.00
73981;BME280;62348;51.412;5.436;2024-02-16T05:44:22;100735.00;;;10.44;100.00
73981;BME280;62348;51.412;5.436;2024-02-16T05:46:47;100739.06;;;10.46;100.00
73981;BME280;62348;51.412;5.436;2024-02-16T05:49:14;100741.50;;;10.48;100.00
73981;BME280;62348;51.412;5.436;2024-02-16T05:51:40;100746.09;;;10.52;100.00
73981;BME280;62348;51.412;5.436;2024-02-16T05:54:06;100744.50;;;10.57;100.00
73981;BME280;62348;51.412;5.436;2024-02-16T05:56:35;100745.88;;;10.59;100.00
73981;BME280;62348;51.412;5.436;2024-02-16T05:59:02;100743.22;;;10.64;100.00
73981;BME280;62348;51.412;5.436;2024-02-16T06:01:29;100759.69;;;10.68;100.00
73981;BME280;62348;51.412;5.436;2024-02-16T06:03:55;100751.88;;;10.71;100.00
73981;BME280;62348;51.412;5.436;2024-02-16T06:06:20;100773.00;;;10.74;100.00
73981;BME280;62348;51.412;5.436;2024-02-16T06:08:46;100758.94;;;10.78;100.00
73981;BME280;62348;51.412;5.436;2024-02-16T06:11:11;100768.41;;;10.80;100.00
73981;BME280;62348;51.412;5.436;2024-02-16T06:13:36;100768.97;;;10.82;100.00
73981;BME280;62348;51.412;5.436;2024-02-16T06:16:05;100771.41;;;10.84;100.00
73981;BME280;62348;51.412;5.436;2024-02-16T06:18:34;100776.28;;;10.87;100.00
73981;BME280;62348;51.412;5.436;2024-02-16T06:20:59;100779.28;;;10.90;100.00
73981;BME280;62348;51.412;5.436;2024-02-16T06:23:25;100776.84;;;10.94;100.00
73981;BME280;62348;51.412;5.436;2024-02-16T06:25:50;100783.34;;;10.98;100.00
73981;BME280;62348;51.412;5.436;2024-02-16T06:28:15;100776.88;;;10.99;100.00
73981;BME280;62348;51.412;5.436;2024-02-16T06:30:41;100787.44;;;11.01;100.00
73981;BME280;62348;51.412;5.436;2024-02-16T06:33:06;100788.25;;;11.01;100.00
73981;BME280;62348;51.412;5.436;2024-02-16T06:35:32;100796.38;;;11.01;100.00
73981;BME280;62348;51.412;5.436;2024-02-16T06:37:57;100799.06;;;11.01;100.00
73981;BME280;62348;51.412;5.436;2024-02-16T06:40:22;100801.50;;;11.03;100.00
73981;BME280;62348;51.412;5.436;2024-02-16T06:42:48;100803.13;;;11.04;100.00
73981;BME280;62348;51.412;5.436;2024-02-16T06:45:13;100814.78;;;11.04;100.00
73981;BME280;62348;51.412;5.436;2024-02-16T06:47:39;100816.41;;;11.05;100.00
73981;BME280;62348;51.412;5.436;2024-02-16T06:50:04;100812.63;;;11.06;100.00
73981;BME280;62348;51.412;5.436;2024-02-16T06:52:30;100810.47;;;11.08;100.00
73981;BME280;62348;51.412;5.436;2024-02-16T06:54:55;100807.50;;;11.10;100.00
73981;BME280;62348;51.412;5.436;2024-02-16T06:57:21;100817.22;;;11.11;100.00
73981;BME280;62348;51.412;5.436;2024-02-16T06:59:47;100823.44;;;11.11;100.00
73981;BME280;62348;51.412;5.436;2024-02-16T07:02:12;100822.38;;;11.12;100.00
73981;BME280;62348;51.412;5.436;2024-02-16T07:04:40;100830.50;;;11.12;100.00
73981;BME280;62348;51.412;5.436;2024-02-16T07:07:05;100827.78;;;11.12;100.00
73981;BME280;62348;51.412;5.436;2024-02-16T07:09:32;100834.84;;;11.13;100.00
73981;BME280;62348;51.412;5.436;2024-02-16T07:11:57;100834.84;;;11.13;100.00
73981;BME280;62348;51.412;5.436;2024-02-16T07:14:23;100829.97;;;11.16;100.00
73981;BME280;62348;51.412;5.436;2024-02-16T07:16:49;100836.19;;;11.16;100.00
73981;BME280;62348;51.412;5.436;2024-02-16T07:19:14;100847.84;;;11.17;100.00
73981;BME280;62348;51.412;5.436;2024-02-16T07:21:40;100850.53;;;11.17;100.00
73981;BME280;62348;51.412;5.436;2024-02-16T07:24:06;100850.53;;;11.17;100.00
73981;BME280;62348;51.412;5.436;2024-02-16T07:26:31;100857.59;;;11.18;100.00
73981;BME280;62348;51.412;5.436;2024-02-16T07:28:57;100861.09;;;11.18;100.00
73981;BME280;62348;51.412;5.436;2024-02-16T07:31:22;100860.00;;;11.19;100.00
73981;BME280;62348;51.412;5.436;2024-02-16T07:33:47;100860.84;;;11.20;100.00
73981;BME280;62348;51.412;5.436;2024-02-16T07:36:14;100865.16;;;11.21;100.00
73981;BME280;62348;51.412;5.436;2024-02-16T07:38:39;100871.41;;;11.21;100.00
73981;BME280;62348;51.412;5.436;2024-02-16T07:41:05;100873.84;;;11.23;100.00
73981;BME280;62348;51.412;5.436;2024-02-16T07:43:31;100871.97;;;11.23;100.00
73981;BME280;62348;51.412;5.436;2024-02-16T07:45:57;100873.56;;;11.24;100.00
73981;BME280;62348;51.412;5.436;2024-02-16T07:48:22;100867.34;;;11.24;100.00
73981;BME280;62348;51.412;5.436;2024-02-16T07:50:48;100872.50;;;11.25;100.00
73981;BME280;62348;51.412;5.436;2024-02-16T07:53:15;100878.72;;;11.26;100.00
73981;BME280;62348;51.412;5.436;2024-02-16T07:55:41;100885.19;;;11.25;100.00
73981;BME280;62348;51.412;5.436;2024-02-16T07:58:07;100880.63;;;11.25;100.00
73981;BME280;62348;51.412;5.436;2024-02-16T08:00:32;100882.78;;;11.28;100.00
73981;BME280;62348;51.412;5.436;2024-02-16T08:02:58;100879.00;;;11.29;100.00
73981;BME280;62348;51.412;5.436;2024-02-16T08:05:24;100878.75;;;11.31;100.00
73981;BME280;62348;51.412;5.436;2024-02-16T08:07:51;100887.69;;;11.31;100.00
73981;BME280;62348;51.412;5.436;2024-02-16T08:10:19;100890.94;;;11.33;100.00
73981;BME280;62348;51.412;5.436;2024-02-16T08:12:46;100890.94;;;11.33;100.00
73981;BME280;62348;51.412;5.436;2024-02-16T08:15:12;100901.50;;;11.35;100.00
73981;BME280;62348;51.412;5.436;2024-02-16T08:17:39;100906.91;;;11.35;100.00
73981;BME280;62348;51.412;5.436;2024-02-16T08:20:05;100909.38;;;11.37;100.00
73981;BME280;62348;51.412;5.436;2024-02-16T08:22:30;100912.88;;;11.37;100.00
73981;BME280;62348;51.412;5.436;2024-02-16T08:24:57;100919.09;;;11.38;100.00
73981;BME280;62348;51.412;5.436;2024-02-16T08:27:23;100920.75;;;11.39;100.00
73981;BME280;62348;51.412;5.436;2024-02-16T08:29:49;100937.28;;;11.42;100.00
73981;BME280;62348;51.412;5.436;2024-02-16T08:32:16;100943.50;;;11.43;100.00
73981;BME280;62348;51.412;5.436;2024-02-16T08:34:42;100945.13;;;11.44;100.00
73981;BME280;62348;51.412;5.436;2024-02-16T08:37:07;100946.75;;;11.45;100.00
73981;BME280;62348;51.412;5.436;2024-02-16T08:39:33;100955.69;;;11.45;100.00
73981;BME280;62348;51.412;5.436;2024-02-16T08:41:59;100960.03;;;11.46;100.00
73981;BME280;62348;51.412;5.436;2024-02-16T08:44:25;100957.88;;;11.48;100.00
73981;BME280;62348;51.412;5.436;2024-02-16T08:46:51;100962.19;;;11.49;100.00
73981;BME280;62348;51.412;5.436;2024-02-16T08:49:18;100964.38;;;11.52;100.00
73981;BME280;62348;51.412;5.436;2024-02-16T08:51:44;100964.13;;;11.54;100.00
73981;BME280;62348;51.412;5.436;2024-02-16T08:54:10;100970.91;;;11.57;100.00
73981;BME280;62348;51.412;5.436;2024-02-16T08:56:35;100969.56;;;11.59;100.00
73981;BME280;62348;51.412;5.436;2024-02-16T08:59:04;100976.59;;;11.60;100.00
73981;BME280;62348;51.412;5.436;2024-02-16T09:01:36;100977.97;;;11.63;100.00
73981;BME280;62348;51.412;5.436;2024-02-16T09:04:02;100971.47;;;11.64;100.00
73981;BME280;62348;51.412;5.436;2024-02-16T09:06:28;100973.13;;;11.65;100.00
73981;BME280;62348;51.412;5.436;2024-02-16T09:08:54;100972.03;;;11.66;100.00
73981;BME280;62348;51.412;5.436;2024-02-16T09:11:20;100981.50;;;11.68;100.00
73981;BME280;62348;51.412;5.436;2024-02-16T09:13:46;100981.25;;;11.70;100.00
73981;BME280;62348;51.412;5.436;2024-02-16T09:16:12;100995.34;;;11.72;100.00
73981;BME280;62348;51.412;5.436;2024-02-16T09:18:37;100989.41;;;11.75;100.00
73981;BME280;62348;51.412;5.436;2024-02-16T09:21:06;100997.00;;;11.78;100.00
73981;BME280;62348;51.412;5.436;2024-02-16T09:23:32;101003.53;;;11.82;100.00
73981;BME280;62348;51.412;5.436;2024-02-16T09:25:58;101001.34;;;11.84;100.00
73981;BME280;62348;51.412;5.436;2024-02-16T09:28:25;100993.53;;;11.88;100.00
73981;BME280;62348;51.412;5.436;2024-02-16T09:30:50;101004.94;;;11.90;100.00
73981;BME280;62348;51.412;5.436;2024-02-16T09:33:16;101015.22;;;11.93;100.00
73981;BME280;62348;51.412;5.436;2024-02-16T09:35:41;101010.38;;;11.95;100.00
73981;BME280;62348;51.412;5.436;2024-02-16T09:38:07;101010.94;;;11.97;100.00
73981;BME280;62348;51.412;5.436;2024-02-16T09:40:32;101026.91;;;11.99;100.00
73981;BME280;62348;51.412;5.436;2024-02-16T09:42:58;101031.50;;;11.98;100.00
73981;BME280;62348;51.412;5.436;2024-02-16T09:45:23;101038.56;;;11.99;100.00
73981;BME280;62348;51.412;5.436;2024-02-16T09:47:51;101051.03;;;12.00;100.00
73981;BME280;62348;51.412;5.436;2024-02-16T09:50:19;101045.88;;;11.99;100.00
73981;BME280;62348;51.412;5.436;2024-02-16T09:52:48;101045.88;;;11.99;100.00
73981;BME280;62348;51.412;5.436;2024-02-16T09:55:15;101045.31;;;11.97;100.00
73981;BME280;62348;51.412;5.436;2024-02-16T09:57:41;101061.88;;;11.95;100.00
73981;BME280;62348;51.412;5.436;2024-02-16T10:00:09;101061.28;;;11.93;100.00
73981;BME280;62348;51.412;5.436;2024-02-16T10:02:44;101069.72;;;11.91;100.00
73981;BME280;62348;51.412;5.436;2024-02-16T10:07:38;101076.19;;;11.90;100.00
73981;BME280;62348;51.412;5.436;2024-02-16T10:10:05;101072.09;;;11.88;100.00
73981;BME280;62348;51.412;5.436;2024-02-16T10:12:31;101072.09;;;11.88;100.00
73981;BME280;62348;51.412;5.436;2024-02-16T10:14:56;101079.66;;;11.86;100.00
73981;BME280;62348;51.412;5.436;2024-02-16T10:17:23;101085.91;;;11.86;100.00
73981;BME280;62348;51.412;5.436;2024-02-16T10:19:58;101084.25;;;11.85;100.00
73981;BME280;62348;51.412;5.436;2024-02-16T10:22:24;101092.38;;;11.85;100.00
73981;BME280;62348;51.412;5.436;2024-02-16T10:24:49;101090.50;;;11.86;100.00
73981;BME280;62348;51.412;5.436;2024-02-16T10:27:18;101089.66;;;11.85;100.00
73981;BME280;62348;51.412;5.436;2024-02-16T10:29:47;101092.94;;;11.87;100.00
73981;BME280;62348;51.412;5.436;2024-02-16T10:32:15;101105.41;;;11.88;100.00
73981;BME280;62348;51.412;5.436;2024-02-16T10:34:40;101112.50;;;11.89;100.00
73981;BME280;62348;51.412;5.436;2024-02-16T10:37:06;101108.69;;;11.90;100.00
73981;BME280;62348;51.412;5.436;2024-02-16T10:39:32;101115.75;;;11.91;100.00
73981;BME280;62348;51.412;5.436;2024-02-16T10:41:58;101123.06;;;11.91;100.00
73981;BME280;62348;51.412;5.436;2024-02-16T10:44:29;101127.41;;;11.92;100.00
73981;BME280;62348;51.412;5.436;2024-02-16T10:46:55;101127.66;;;11.90;100.00
73981;BME280;62348;51.412;5.436;2024-02-16T10:49:24;101137.44;;;11.91;100.00
73981;BME280;62348;51.412;5.436;2024-02-16T10:51:53;101139.31;;;11.91;100.00
73981;BME280;62348;51.412;5.436;2024-02-16T10:54:22;101148.00;;;11.93;100.00
73981;BME280;62348;51.412;5.436;2024-02-16T10:56:48;101142.31;;;11.89;100.00
73981;BME280;62348;51.412;5.436;2024-02-16T10:59:16;101143.34;;;11.88;100.00
73981;BME280;62348;51.412;5.436;2024-02-16T11:01:44;101153.63;;;11.86;100.00
73981;BME280;62348;51.412;5.436;2024-02-16T11:04:17;101151.97;;;11.85;100.00
73981;BME280;62348;51.412;5.436;2024-02-16T11:06:52;101152.81;;;11.86;100.00
73981;BME280;62348;51.412;5.436;2024-02-16T11:11:52;101159.06;;;11.86;100.00
73981;BME280;62348;51.412;5.436;2024-02-16T11:14:18;101160.13;;;11.85;100.00
73981;BME280;62348;51.412;5.436;2024-02-16T11:16:44;101170.16;;;11.85;100.00
73981;BME280;62348;51.412;5.436;2024-02-16T11:19:10;101166.88;;;11.83;100.00
73981;BME280;62348;51.412;5.436;2024-02-16T11:21:35;101158.75;;;11.83;100.00
73981;BME280;62348;51.412;5.436;2024-02-16T11:24:07;101170.41;;;11.83;100.00
73981;BME280;62348;51.412;5.436;2024-02-16T11:26:42;101175.81;;;11.83;100.00
73981;BME280;62348;51.412;5.436;2024-02-16T11:29:09;101173.09;;;11.83;100.00
73981;BME280;62348;51.412;5.436;2024-02-16T11:31:35;101168.78;;;11.82;100.00
73981;BME280;62348;51.412;5.436;2024-02-16T11:34:00;101171.50;;;11.82;100.00
73981;BME280;62348;51.412;5.436;2024-02-16T11:36:26;101174.19;;;11.82;100.00
73981;BME280;62348;51.412;5.436;2024-02-16T11:38:52;101183.13;;;11.83;100.00
73981;BME280;62348;51.412;5.436;2024-02-16T11:41:17;101185.84;;;11.83;100.00
73981;BME280;62348;51.412;5.436;2024-02-16T11:43:43;101187.75;;;11.82;100.00
73981;BME280;62348;51.412;5.436;2024-02-16T11:46:15;101199.41;;;11.83;100.00
73981;BME280;62348;51.412;5.436;2024-02-16T11:48:42;101193.97;;;11.83;100.00
73981;BME280;62348;51.412;5.436;2024-02-16T11:51:08;101204.00;;;11.82;100.00
73981;BME280;62348;51.412;5.436;2024-02-16T11:53:34;101211.03;;;11.83;100.00
73981;BME280;62348;51.412;5.436;2024-02-16T11:55:59;101204.00;;;11.82;100.00
73981;BME280;62348;51.412;5.436;2024-02-16T11:58:26;101214.00;;;11.82;100.00
73981;BME280;62348;51.412;5.436;2024-02-16T12:00:52;101211.56;;;11.80;100.00
73981;BME280;62348;51.412;5.436;2024-02-16T12:03:22;101214.28;;;11.80;100.00
73981;BME280;62348;51.412;5.436;2024-02-16T12:05:55;101223.47;;;11.79;100.00
73981;BME280;62348;51.412;5.436;2024-02-16T12:08:21;101216.44;;;11.78;100.00
73981;BME280;62348;51.412;5.436;2024-02-16T12:10:51;101213.19;;;11.76;100.00
73981;BME280;62348;51.412;5.436;2024-02-16T12:13:17;101227.53;;;11.77;100.00
73981;BME280;62348;51.412;5.436;2024-02-16T12:15:47;101231.03;;;11.77;100.00
73981;BME280;62348;51.412;5.436;2024-02-16T12:18:23;101228.59;;;11.76;100.00
73981;BME280;62348;51.412;5.436;2024-02-16T12:21:04;101235.91;;;11.75;100.00
73981;BME280;62348;51.412;5.436;2024-02-16T12:23:35;101238.88;;;11.73;100.00
73981;BME280;62348;51.412;5.436;2024-02-16T12:26:02;101243.72;;;11.71;100.00
73981;BME280;62348;51.412;5.436;2024-02-16T12:28:29;101250.25;;;11.70;100.00
73981;BME280;62348;51.412;5.436;2024-02-16T12:30:57;101247.78;;;11.69;100.00
73981;BME280;62348;51.412;5.436;2024-02-16T12:33:23;101256.16;;;11.67;100.00
73981;BME280;62348;51.412;5.436;2024-02-16T12:35:49;101253.47;;;11.67;100.00
73981;BME280;62348;51.412;5.436;2024-02-16T12:38:15;101250.75;;;11.67;100.00
73981;BME280;62348;51.412;5.436;2024-02-16T12:40:45;101260.50;;;11.68;100.00
73981;BME280;62348;51.412;5.436;2024-02-16T12:43:11;101270.50;;;11.68;100.00